Date,TemperatureHighF,TemperatureAvgF,TemperatureLowF,DewpointHighF,DewpointAvgF,DewpointLowF,HumidityHigh,HumidityAvg,HumidityLow,PressureMaxIn,PressureMinIn,WindSpeedMaxMPH,WindSpeedAvgMPH,GustSpeedMaxMPH,PrecipitationSumIn
2013-10-1,61.0,52.8,46.0,40.0,35.6,31.0,80,56,32,0.00,40.00,4,3,12,0.00
2013-10-2,74.0,54.0,32.0,53.0,39.6,31.0,99,69,21,0.00,40.00,6,2,13,0.00
2013-10-3,55.0,52.4,51.0,54.0,52.1,51.0,99,98,94,0.00,40.00,6,4,13,0.00
2013-10-4,58.0,53.2,51.0,52.0,51.0,50.0,99,93,77,0.00,40.00,9,5,20,0.00
2013-10-5,55.0,51.6,49.0,54.0,51.2,49.0,99,99,97,0.00,40.00,7,4,17,0.00
2013-10-6,56.0,49.8,41.0,55.0,48.7,41.0,99,96,80,0.00,40.00,7,2,13,0.00
2013-10-7,62.0,46.6,35.0,48.0,39.2,33.0,99,81,36,0.00,40.00,7,2,12,0.00
2013-10-8,73.0,55.0,32.0,42.0,37.8,32.0,99,60,27,0.00,40.00,15,7,28,0.00
2013-10-9,72.0,63.2,48.0,49.0,44.4,39.0,95,52,38,0.00,40.00,14,7,22,0.00
2013-10-10,72.0,58.1,45.0,48.0,42.7,39.0,99,61,32,0.00,40.00,7,4,22,0.00
2013-10-11,74.0,63.6,53.0,52.0,48.5,43.0,87,60,40,0.00,40.00,16,7,29,0.00
2013-10-12,67.0,54.3,46.0,54.0,43.3,-99.9,97,70,55,0.00,40.00,11,6,27,0.00
2013-10-13,58.0,46.3,32.0,45.0,35.7,24.0,99,73,29,0.00,40.00,9,-42,15,0.00
2013-10-14,54.0,41.4,29.0,42.0,32.3,29.0,99,75,45,0.00,40.00,5,2,11,0.00
2013-10-15,49.0,47.5,45.0,49.0,45.7,33.0,99,94,54,0.00,40.00,12,5,29,0.00
2013-10-16,45.0,40.7,29.0,45.0,38.4,29.0,99,93,67,0.00,40.00,12,4,29,0.00
2013-10-17,52.0,38.3,27.0,44.0,35.3,27.0,99,90,60,0.00,40.00,4,1,7,0.00
2013-10-18,47.0,40.7,33.0,43.0,36.1,24.0,99,86,40,0.00,40.00,9,4,15,0.00
2013-10-19,42.0,35.9,29.0,39.0,33.5,-99.9,99,95,79,0.00,40.00,4,2,9,0.00
2013-10-20,38.0,31.4,26.0,38.0,30.8,26.0,99,98,91,0.00,40.00,6,2,12,0.00
2013-10-21,33.0,31.7,30.0,33.0,28.7,24.0,99,89,71,0.00,40.00,7,4,16,0.00
2013-10-22,35.0,32.8,27.0,32.0,28.1,24.0,98,84,68,0.00,40.00,7,3,16,0.00
2013-10-23,36.0,31.0,26.0,30.0,23.3,16.0,97,76,44,0.00,40.00,9,4,16,0.00
2013-10-24,38.0,33.8,30.0,28.0,25.8,22.0,90,74,54,0.00,40.00,9,4,16,0.00
2013-10-25,49.0,36.5,22.0,35.0,26.7,22.0,99,71,45,0.00,40.00,10,4,27,0.00
2013-10-26,49.0,40.1,36.0,35.0,29.4,-99.9,83,68,48,0.00,40.00,12,6,23,0.00
2013-10-27,50.0,37.9,30.0,33.0,28.5,27.0,95,71,43,0.00,40.00,12,6,22,0.00
2013-10-28,41.0,32.2,24.0,33.0,20.9,-99.9,95,68,36,0.00,40.00,12,5,25,0.00
2013-10-29,35.0,31.5,22.0,34.0,28.3,22.0,99,88,66,0.00,40.00,4,1,10,0.00
2013-10-30,49.0,41.5,34.0,48.0,41.1,34.0,99,99,99,0.00,40.00,6,2,11,0.00
2013-10-31,49.0,47.2,44.0,49.0,47.0,44.0,99,99,99,0.00,40.00,5,2,7,0.00